sensor_id;sensor_type;location;lat;lon;timestamp;P1;durP1;ratioP1;P2;durP2;ratioP2
18867;SDS011;9563;49.240;9.088;2022-10-31T00:00:31;7.30;;;4.05;;
18867;SDS011;9563;49.240;9.088;2022-10-31T00:02:58;11.80;;;4.35;;
18867;SDS011;9563;49.240;9.088;2022-10-31T00:05:25;15.57;;;4.20;;
18867;SDS011;9563;49.240;9.088;2022-10-31T00:07:53;6.90;;;3.72;;
18867;SDS011;9563;49.240;9.088;2022-10-31T00:10:20;13.07;;;4.55;;
18867;SDS011;9563;49.240;9.088;2022-10-31T00:12:47;9.93;;;3.53;;
18867;SDS011;9563;49.240;9.088;2022-10-31T00:15:14;9.02;;;3.65;;
18867;SDS011;9563;49.240;9.088;2022-10-31T00:17:41;8.02;;;3.75;;
18867;SDS011;9563;49.240;9.088;2022-10-31T00:20:08;7.20;;;3.50;;
18867;SDS011;9563;49.240;9.088;2022-10-31T00:22:35;13.93;;;4.60;;
18867;SDS011;9563;49.240;9.088;2022-10-31T00:25:04;10.13;;;4.10;;
18867;SDS011;9563;49.240;9.088;2022-10-31T00:27:32;12.27;;;4.18;;
18867;SDS011;9563;49.240;9.088;2022-10-31T00:29:58;12.75;;;4.50;;
18867;SDS011;9563;49.240;9.088;2022-10-31T00:32:28;12.95;;;5.22;;
18867;SDS011;9563;49.240;9.088;2022-10-31T00:34:55;11.85;;;4.07;;
18867;SDS011;9563;49.240;9.088;2022-10-31T00:37:21;7.10;;;3.92;;
18867;SDS011;9563;49.240;9.088;2022-10-31T00:39:49;11.17;;;4.10;;
18867;SDS011;9563;49.240;9.088;2022-10-31T00:42:17;7.70;;;3.97;;
18867;SDS011;9563;49.240;9.088;2022-10-31T00:44:44;9.10;;;4.80;;
18867;SDS011;9563;49.240;9.088;2022-10-31T00:47:11;10.95;;;4.65;;
18867;SDS011;9563;49.240;9.088;2022-10-31T00:49:38;8.40;;;4.20;;
18867;SDS011;9563;49.240;9.088;2022-10-31T00:52:05;8.90;;;4.25;;
18867;SDS011;9563;49.240;9.088;2022-10-31T00:54:32;7.90;;;4.18;;
18867;SDS011;9563;49.240;9.088;2022-10-31T00:56:59;13.52;;;4.10;;
18867;SDS011;9563;49.240;9.088;2022-10-31T00:59:27;10.40;;;3.80;;
18867;SDS011;9563;49.240;9.088;2022-10-31T01:01:54;10.23;;;3.65;;
18867;SDS011;9563;49.240;9.088;2022-10-31T01:04:21;14.75;;;3.88;;
18867;SDS011;9563;49.240;9.088;2022-10-31T01:06:48;13.93;;;4.20;;
18867;SDS011;9563;49.240;9.088;2022-10-31T01:09:15;7.77;;;3.93;;
18867;SDS011;9563;49.240;9.088;2022-10-31T01:11:42;12.60;;;3.63;;
18867;SDS011;9563;49.240;9.088;2022-10-31T01:14:09;9.30;;;3.47;;
18867;SDS011;9563;49.240;9.088;2022-10-31T01:16:37;11.38;;;4.25;;
18867;SDS011;9563;49.240;9.088;2022-10-31T01:19:04;11.65;;;5.25;;
18867;SDS011;9563;49.240;9.088;2022-10-31T01:21:31;9.80;;;4.25;;
18867;SDS011;9563;49.240;9.088;2022-10-31T01:23:58;15.95;;;5.28;;
18867;SDS011;9563;49.240;9.088;2022-10-31T01:26:27;13.27;;;4.32;;
18867;SDS011;9563;49.240;9.088;2022-10-31T01:28:56;8.77;;;5.20;;
18867;SDS011;9563;49.240;9.088;2022-10-31T01:31:25;15.13;;;4.28;;
18867;SDS011;9563;49.240;9.088;2022-10-31T01:33:55;12.85;;;4.13;;
18867;SDS011;9563;49.240;9.088;2022-10-31T01:36:22;13.00;;;4.53;;
18867;SDS011;9563;49.240;9.088;2022-10-31T01:38:51;11.53;;;4.73;;
18867;SDS011;9563;49.240;9.088;2022-10-31T01:41:20;7.90;;;4.30;;
18867;SDS011;9563;49.240;9.088;2022-10-31T01:43:50;7.43;;;3.75;;
18867;SDS011;9563;49.240;9.088;2022-10-31T01:46:19;15.80;;;4.88;;
18867;SDS011;9563;49.240;9.088;2022-10-31T01:48:48;9.88;;;5.10;;
18867;SDS011;9563;49.240;9.088;2022-10-31T01:51:18;17.17;;;6.03;;
18867;SDS011;9563;49.240;9.088;2022-10-31T01:53:49;13.48;;;5.15;;
18867;SDS011;9563;49.240;9.088;2022-10-31T01:56:17;12.40;;;4.47;;
18867;SDS011;9563;49.240;9.088;2022-10-31T01:58:45;15.30;;;4.43;;
18867;SDS011;9563;49.240;9.088;2022-10-31T02:01:13;10.75;;;3.90;;
18867;SDS011;9563;49.240;9.088;2022-10-31T02:03:42;10.73;;;4.50;;
18867;SDS011;9563;49.240;9.088;2022-10-31T02:06:10;8.77;;;4.33;;
18867;SDS011;9563;49.240;9.088;2022-10-31T02:08:46;14.77;;;4.73;;
18867;SDS011;9563;49.240;9.088;2022-10-31T02:11:14;14.93;;;4.90;;
18867;SDS011;9563;49.240;9.088;2022-10-31T02:13:41;17.80;;;5.40;;
18867;SDS011;9563;49.240;9.088;2022-10-31T02:16:08;24.50;;;6.63;;
18867;SDS011;9563;49.240;9.088;2022-10-31T02:18:35;22.27;;;5.47;;
18867;SDS011;9563;49.240;9.088;2022-10-31T02:21:04;16.43;;;4.87;;
18867;SDS011;9563;49.240;9.088;2022-10-31T02:26:50;16.85;;;5.88;;
18867;SDS011;9563;49.240;9.088;2022-10-31T02:32:23;14.45;;;5.20;;
18867;SDS011;9563;49.240;9.088;2022-10-31T02:34:56;8.80;;;4.20;;
18867;SDS011;9563;49.240;9.088;2022-10-31T02:37:30;9.13;;;5.07;;
18867;SDS011;9563;49.240;9.088;2022-10-31T02:40:04;11.13;;;4.57;;
18867;SDS011;9563;49.240;9.088;2022-10-31T02:42:39;9.97;;;5.17;;
18867;SDS011;9563;49.240;9.088;2022-10-31T02:45:13;9.83;;;5.70;;
18867;SDS011;9563;49.240;9.088;2022-10-31T02:47:51;20.17;;;7.27;;
18867;SDS011;9563;49.240;9.088;2022-10-31T02:50:22;14.48;;;5.78;;
18867;SDS011;9563;49.240;9.088;2022-10-31T02:52:52;13.50;;;5.60;;
18867;SDS011;9563;49.240;9.088;2022-10-31T02:58:17;13.50;;;5.53;;
18867;SDS011;9563;49.240;9.088;2022-10-31T03:00:49;9.30;;;5.28;;
18867;SDS011;9563;49.240;9.088;2022-10-31T03:03:36;14.07;;;5.50;;
18867;SDS011;9563;49.240;9.088;2022-10-31T03:06:12;7.83;;;4.43;;
18867;SDS011;9563;49.240;9.088;2022-10-31T03:08:47;11.70;;;5.80;;
18867;SDS011;9563;49.240;9.088;2022-10-31T03:11:20;15.33;;;6.43;;
18867;SDS011;9563;49.240;9.088;2022-10-31T03:13:56;13.63;;;6.00;;
18867;SDS011;9563;49.240;9.088;2022-10-31T03:16:28;14.23;;;5.83;;
18867;SDS011;9563;49.240;9.088;2022-10-31T03:19:06;10.73;;;5.30;;
18867;SDS011;9563;49.240;9.088;2022-10-31T03:21:36;9.60;;;4.90;;
18867;SDS011;9563;49.240;9.088;2022-10-31T03:24:06;8.73;;;4.77;;
18867;SDS011;9563;49.240;9.088;2022-10-31T03:26:36;12.27;;;5.10;;
18867;SDS011;9563;49.240;9.088;2022-10-31T03:29:05;16.05;;;5.55;;
18867;SDS011;9563;49.240;9.088;2022-10-31T03:31:35;21.58;;;5.90;;
18867;SDS011;9563;49.240;9.088;2022-10-31T03:34:07;18.55;;;6.20;;
18867;SDS011;9563;49.240;9.088;2022-10-31T03:36:36;14.48;;;5.80;;
18867;SDS011;9563;49.240;9.088;2022-10-31T03:39:06;18.90;;;5.60;;
18867;SDS011;9563;49.240;9.088;2022-10-31T03:41:39;18.45;;;5.78;;
18867;SDS011;9563;49.240;9.088;2022-10-31T03:44:10;16.03;;;5.50;;
18867;SDS011;9563;49.240;9.088;2022-10-31T03:46:40;18.50;;;5.83;;
18867;SDS011;9563;49.240;9.088;2022-10-31T03:49:09;12.32;;;5.50;;
18867;SDS011;9563;49.240;9.088;2022-10-31T03:51:39;14.55;;;4.97;;
18867;SDS011;9563;49.240;9.088;2022-10-31T03:54:12;17.90;;;5.78;;
18867;SDS011;9563;49.240;9.088;2022-10-31T03:56:49;11.90;;;4.38;;
18867;SDS011;9563;49.240;9.088;2022-10-31T03:59:19;10.90;;;5.00;;
18867;SDS011;9563;49.240;9.088;2022-10-31T04:01:51;10.63;;;4.72;;
18867;SDS011;9563;49.240;9.088;2022-10-31T04:04:24;10.60;;;4.40;;
18867;SDS011;9563;49.240;9.088;2022-10-31T04:06:52;15.38;;;5.18;;
18867;SDS011;9563;49.240;9.088;2022-10-31T04:09:22;6.05;;;4.22;;
18867;SDS011;9563;49.240;9.088;2022-10-31T04:11:51;10.38;;;4.78;;
18867;SDS011;9563;49.240;9.088;2022-10-31T04:14:21;32.55;;;5.93;;
18867;SDS011;9563;49.240;9.088;2022-10-31T04:16:50;15.43;;;4.78;;
18867;SDS011;9563;49.240;9.088;2022-10-31T04:19:17;12.30;;;5.47;;
18867;SDS011;9563;49.240;9.088;2022-10-31T04:21:45;11.07;;;4.75;;
18867;SDS011;9563;49.240;9.088;2022-10-31T04:24:12;9.05;;;4.97;;
18867;SDS011;9563;49.240;9.088;2022-10-31T04:26:39;14.05;;;5.40;;
18867;SDS011;9563;49.240;9.088;2022-10-31T04:29:06;11.07;;;5.03;;
18867;SDS011;9563;49.240;9.088;2022-10-31T04:31:33;10.20;;;5.43;;
18867;SDS011;9563;49.240;9.088;2022-10-31T04:34:00;11.73;;;5.20;;
18867;SDS011;9563;49.240;9.088;2022-10-31T04:36:27;11.48;;;5.15;;
18867;SDS011;9563;49.240;9.088;2022-10-31T04:38:55;11.30;;;5.40;;
18867;SDS011;9563;49.240;9.088;2022-10-31T04:41:22;11.35;;;4.95;;
18867;SDS011;9563;49.240;9.088;2022-10-31T04:43:49;14.15;;;5.03;;
18867;SDS011;9563;49.240;9.088;2022-10-31T04:46:15;10.35;;;5.13;;
18867;SDS011;9563;49.240;9.088;2022-10-31T04:48:42;10.88;;;5.00;;
18867;SDS011;9563;49.240;9.088;2022-10-31T04:51:09;11.38;;;4.68;;
18867;SDS011;9563;49.240;9.088;2022-10-31T04:53:36;8.25;;;4.72;;
18867;SDS011;9563;49.240;9.088;2022-10-31T04:56:05;7.97;;;4.28;;
18867;SDS011;9563;49.240;9.088;2022-10-31T04:58:33;8.52;;;4.13;;
18867;SDS011;9563;49.240;9.088;2022-10-31T05:00:59;7.03;;;4.00;;
18867;SDS011;9563;49.240;9.088;2022-10-31T05:03:26;7.37;;;4.27;;
18867;SDS011;9563;49.240;9.088;2022-10-31T05:05:53;8.07;;;4.00;;
18867;SDS011;9563;49.240;9.088;2022-10-31T05:08:21;6.75;;;4.00;;
18867;SDS011;9563;49.240;9.088;2022-10-31T05:10:48;8.65;;;3.72;;
18867;SDS011;9563;49.240;9.088;2022-10-31T05:13:16;13.55;;;4.38;;
18867;SDS011;9563;49.240;9.088;2022-10-31T05:15:43;9.73;;;4.18;;
18867;SDS011;9563;49.240;9.088;2022-10-31T05:18:09;11.47;;;4.03;;
18867;SDS011;9563;49.240;9.088;2022-10-31T05:20:36;11.38;;;4.95;;
18867;SDS011;9563;49.240;9.088;2022-10-31T05:23:03;9.43;;;4.18;;
18867;SDS011;9563;49.240;9.088;2022-10-31T05:25:30;5.95;;;3.88;;
18867;SDS011;9563;49.240;9.088;2022-10-31T05:27:57;6.72;;;3.95;;
18867;SDS011;9563;49.240;9.088;2022-10-31T05:30:26;8.93;;;4.82;;
18867;SDS011;9563;49.240;9.088;2022-10-31T05:32:54;11.40;;;4.88;;
18867;SDS011;9563;49.240;9.088;2022-10-31T05:35:23;6.85;;;4.30;;
18867;SDS011;9563;49.240;9.088;2022-10-31T05:37:51;7.78;;;4.63;;
18867;SDS011;9563;49.240;9.088;2022-10-31T05:40:19;10.45;;;5.45;;
18867;SDS011;9563;49.240;9.088;2022-10-31T05:42:47;15.07;;;4.65;;
18867;SDS011;9563;49.240;9.088;2022-10-31T05:45:16;6.07;;;3.92;;
18867;SDS011;9563;49.240;9.088;2022-10-31T05:47:51;13.63;;;4.20;;
18867;SDS011;9563;49.240;9.088;2022-10-31T05:50:18;8.77;;;3.58;;
18867;SDS011;9563;49.240;9.088;2022-10-31T05:52:45;7.40;;;3.92;;
18867;SDS011;9563;49.240;9.088;2022-10-31T05:55:12;6.93;;;4.05;;
18867;SDS011;9563;49.240;9.088;2022-10-31T05:57:39;6.28;;;3.70;;
18867;SDS011;9563;49.240;9.088;2022-10-31T06:00:07;7.35;;;3.97;;
18867;SDS011;9563;49.240;9.088;2022-10-31T06:02:35;13.35;;;4.47;;
18867;SDS011;9563;49.240;9.088;2022-10-31T06:05:04;10.65;;;4.25;;
18867;SDS011;9563;49.240;9.088;2022-10-31T06:07:34;38.87;;;6.40;;
18867;SDS011;9563;49.240;9.088;2022-10-31T06:10:02;9.07;;;4.90;;
18867;SDS011;9563;49.240;9.088;2022-10-31T06:12:30;10.97;;;4.53;;
18867;SDS011;9563;49.240;9.088;2022-10-31T06:15:02;10.80;;;4.60;;
18867;SDS011;9563;49.240;9.088;2022-10-31T06:17:30;23.30;;;5.35;;
18867;SDS011;9563;49.240;9.088;2022-10-31T06:19:57;11.63;;;5.03;;
18867;SDS011;9563;49.240;9.088;2022-10-31T06:22:26;10.60;;;5.30;;
18867;SDS011;9563;49.240;9.088;2022-10-31T06:24:53;9.67;;;5.20;;
18867;SDS011;9563;49.240;9.088;2022-10-31T06:27:20;8.90;;;5.60;;
18867;SDS011;9563;49.240;9.088;2022-10-31T06:29:47;6.15;;;4.45;;
18867;SDS011;9563;49.240;9.088;2022-10-31T06:32:15;13.90;;;5.23;;
18867;SDS011;9563;49.240;9.088;2022-10-31T06:34:42;7.30;;;4.17;;
18867;SDS011;9563;49.240;9.088;2022-10-31T06:37:10;11.13;;;4.33;;
18867;SDS011;9563;49.240;9.088;2022-10-31T06:39:39;11.23;;;4.93;;
18867;SDS011;9563;49.240;9.088;2022-10-31T06:42:06;9.27;;;5.40;;
18867;SDS011;9563;49.240;9.088;2022-10-31T06:44:33;11.07;;;4.95;;
18867;SDS011;9563;49.240;9.088;2022-10-31T06:47:00;7.87;;;4.93;;
18867;SDS011;9563;49.240;9.088;2022-10-31T06:49:26;9.07;;;4.27;;
18867;SDS011;9563;49.240;9.088;2022-10-31T06:51:53;9.43;;;4.83;;
18867;SDS011;9563;49.240;9.088;2022-10-31T06:54:20;6.55;;;4.38;;
18867;SDS011;9563;49.240;9.088;2022-10-31T06:56:49;7.95;;;4.38;;
18867;SDS011;9563;49.240;9.088;2022-10-31T06:59:15;6.40;;;4.03;;
18867;SDS011;9563;49.240;9.088;2022-10-31T07:01:42;9.00;;;4.10;;
18867;SDS011;9563;49.240;9.088;2022-10-31T07:04:10;10.35;;;4.72;;
18867;SDS011;9563;49.240;9.088;2022-10-31T07:06:37;7.82;;;3.92;;
18867;SDS011;9563;49.240;9.088;2022-10-31T07:09:04;10.32;;;4.55;;
18867;SDS011;9563;49.240;9.088;2022-10-31T07:11:31;7.30;;;4.43;;
18867;SDS011;9563;49.240;9.088;2022-10-31T07:14:00;7.38;;;4.25;;
18867;SDS011;9563;49.240;9.088;2022-10-31T07:16:27;12.13;;;4.72;;
18867;SDS011;9563;49.240;9.088;2022-10-31T07:18:54;11.57;;;4.70;;
18867;SDS011;9563;49.240;9.088;2022-10-31T07:21:21;7.28;;;4.28;;
18867;SDS011;9563;49.240;9.088;2022-10-31T07:23:48;10.05;;;4.18;;
18867;SDS011;9563;49.240;9.088;2022-10-31T07:26:15;8.55;;;4.38;;
18867;SDS011;9563;49.240;9.088;2022-10-31T07:28:42;8.38;;;3.90;;
18867;SDS011;9563;49.240;9.088;2022-10-31T07:31:11;5.13;;;3.40;;
18867;SDS011;9563;49.240;9.088;2022-10-31T07:33:38;6.40;;;3.63;;
18867;SDS011;9563;49.240;9.088;2022-10-31T07:36:05;6.03;;;3.78;;
18867;SDS011;9563;49.240;9.088;2022-10-31T07:38:32;8.13;;;4.78;;
18867;SDS011;9563;49.240;9.088;2022-10-31T07:40:59;8.88;;;4.28;;
18867;SDS011;9563;49.240;9.088;2022-10-31T07:43:26;9.23;;;4.50;;
18867;SDS011;9563;49.240;9.088;2022-10-31T07:45:53;8.30;;;4.10;;
18867;SDS011;9563;49.240;9.088;2022-10-31T07:48:22;8.63;;;4.50;;
18867;SDS011;9563;49.240;9.088;2022-10-31T07:50:49;6.53;;;4.28;;
18867;SDS011;9563;49.240;9.088;2022-10-31T07:53:16;7.15;;;4.45;;
18867;SDS011;9563;49.240;9.088;2022-10-31T07:55:43;11.38;;;4.50;;
18867;SDS011;9563;49.240;9.088;2022-10-31T07:58:11;11.85;;;6.32;;
18867;SDS011;9563;49.240;9.088;2022-10-31T08:00:39;11.82;;;6.30;;
18867;SDS011;9563;49.240;9.088;2022-10-31T08:03:08;13.90;;;5.55;;
18867;SDS011;9563;49.240;9.088;2022-10-31T08:05:37;11.93;;;5.85;;
18867;SDS011;9563;49.240;9.088;2022-10-31T08:08:06;12.55;;;5.72;;
18867;SDS011;9563;49.240;9.088;2022-10-31T08:10:33;12.43;;;5.20;;
18867;SDS011;9563;49.240;9.088;2022-10-31T08:13:02;14.85;;;5.60;;
18867;SDS011;9563;49.240;9.088;2022-10-31T08:15:30;13.75;;;5.75;;
18867;SDS011;9563;49.240;9.088;2022-10-31T08:17:59;13.95;;;5.10;;
18867;SDS011;9563;49.240;9.088;2022-10-31T08:20:27;11.90;;;5.78;;
18867;SDS011;9563;49.240;9.088;2022-10-31T08:22:56;12.60;;;5.82;;
18867;SDS011;9563;49.240;9.088;2022-10-31T08:25:24;9.85;;;5.20;;
18867;SDS011;9563;49.240;9.088;2022-10-31T08:27:54;10.82;;;5.70;;
18867;SDS011;9563;49.240;9.088;2022-10-31T08:30:22;11.45;;;5.65;;
18867;SDS011;9563;49.240;9.088;2022-10-31T08:32:58;13.52;;;5.80;;
18867;SDS011;9563;49.240;9.088;2022-10-31T08:35:28;14.70;;;6.38;;
18867;SDS011;9563;49.240;9.088;2022-10-31T08:37:58;13.48;;;6.00;;
18867;SDS011;9563;49.240;9.088;2022-10-31T08:40:26;14.02;;;6.35;;
18867;SDS011;9563;49.240;9.088;2022-10-31T08:42:57;10.13;;;5.78;;
18867;SDS011;9563;49.240;9.088;2022-10-31T08:45:25;13.55;;;6.03;;
18867;SDS011;9563;49.240;9.088;2022-10-31T08:47:56;15.02;;;5.25;;
18867;SDS011;9563;49.240;9.088;2022-10-31T08:50:23;10.02;;;6.07;;
18867;SDS011;9563;49.240;9.088;2022-10-31T08:52:51;11.77;;;6.55;;
18867;SDS011;9563;49.240;9.088;2022-10-31T08:55:19;14.40;;;5.90;;
18867;SDS011;9563;49.240;9.088;2022-10-31T08:57:46;12.40;;;5.25;;
18867;SDS011;9563;49.240;9.088;2022-10-31T09:00:13;11.32;;;5.68;;
18867;SDS011;9563;49.240;9.088;2022-10-31T09:02:41;17.13;;;6.40;;
18867;SDS011;9563;49.240;9.088;2022-10-31T09:05:07;15.63;;;6.30;;
18867;SDS011;9563;49.240;9.088;2022-10-31T09:07:35;17.77;;;5.88;;
18867;SDS011;9563;49.240;9.088;2022-10-31T09:10:02;15.18;;;5.90;;
18867;SDS011;9563;49.240;9.088;2022-10-31T09:12:30;12.98;;;6.28;;
18867;SDS011;9563;49.240;9.088;2022-10-31T09:14:57;13.98;;;6.60;;
18867;SDS011;9563;49.240;9.088;2022-10-31T09:17:26;14.18;;;7.47;;
18867;SDS011;9563;49.240;9.088;2022-10-31T09:19:54;16.88;;;8.18;;
18867;SDS011;9563;49.240;9.088;2022-10-31T09:22:21;14.80;;;7.38;;
18867;SDS011;9563;49.240;9.088;2022-10-31T09:24:48;18.00;;;8.02;;
18867;SDS011;9563;49.240;9.088;2022-10-31T09:27:15;21.83;;;8.95;;
18867;SDS011;9563;49.240;9.088;2022-10-31T09:29:44;12.98;;;7.07;;
18867;SDS011;9563;49.240;9.088;2022-10-31T09:32:11;13.88;;;8.20;;
18867;SDS011;9563;49.240;9.088;2022-10-31T09:34:38;17.13;;;7.70;;
18867;SDS011;9563;49.240;9.088;2022-10-31T09:37:04;14.45;;;7.15;;
18867;SDS011;9563;49.240;9.088;2022-10-31T09:39:32;12.30;;;6.57;;
18867;SDS011;9563;49.240;9.088;2022-10-31T09:42:02;16.15;;;6.85;;
18867;SDS011;9563;49.240;9.088;2022-10-31T09:44:42;14.60;;;6.45;;
18867;SDS011;9563;49.240;9.088;2022-10-31T09:47:17;13.00;;;6.45;;
18867;SDS011;9563;49.240;9.088;2022-10-31T09:49:59;14.57;;;6.72;;
18867;SDS011;9563;49.240;9.088;2022-10-31T09:52:39;17.52;;;7.22;;
18867;SDS011;9563;49.240;9.088;2022-10-31T09:55:13;14.00;;;6.95;;
18867;SDS011;9563;49.240;9.088;2022-10-31T09:57:43;16.77;;;7.10;;
18867;SDS011;9563;49.240;9.088;2022-10-31T10:00:17;15.00;;;7.53;;
18867;SDS011;9563;49.240;9.088;2022-10-31T10:02:47;15.38;;;6.80;;
18867;SDS011;9563;49.240;9.088;2022-10-31T10:05:20;63.78;;;10.48;;
18867;SDS011;9563;49.240;9.088;2022-10-31T10:07:55;19.58;;;7.85;;
18867;SDS011;9563;49.240;9.088;2022-10-31T10:10:30;15.90;;;7.53;;
18867;SDS011;9563;49.240;9.088;2022-10-31T10:13:18;17.88;;;7.55;;
18867;SDS011;9563;49.240;9.088;2022-10-31T10:16:06;15.52;;;7.38;;
18867;SDS011;9563;49.240;9.088;2022-10-31T10:18:43;16.77;;;7.13;;
18867;SDS011;9563;49.240;9.088;2022-10-31T10:21:22;16.33;;;7.25;;
18867;SDS011;9563;49.240;9.088;2022-10-31T10:23:56;17.15;;;7.18;;
18867;SDS011;9563;49.240;9.088;2022-10-31T10:26:36;16.25;;;7.25;;
18867;SDS011;9563;49.240;9.088;2022-10-31T10:29:08;17.00;;;7.45;;
18867;SDS011;9563;49.240;9.088;2022-10-31T10:31:48;20.48;;;8.00;;
18867;SDS011;9563;49.240;9.088;2022-10-31T10:34:18;16.23;;;8.25;;
18867;SDS011;9563;49.240;9.088;2022-10-31T10:36:50;14.43;;;6.93;;
18867;SDS011;9563;49.240;9.088;2022-10-31T10:39:22;18.10;;;8.20;;
18867;SDS011;9563;49.240;9.088;2022-10-31T10:41:51;20.00;;;7.78;;
18867;SDS011;9563;49.240;9.088;2022-10-31T10:44:36;16.85;;;8.43;;
18867;SDS011;9563;49.240;9.088;2022-10-31T10:47:23;18.27;;;8.70;;
18867;SDS011;9563;49.240;9.088;2022-10-31T10:50:06;21.02;;;9.57;;
18867;SDS011;9563;49.240;9.088;2022-10-31T10:52:40;20.25;;;8.25;;
18867;SDS011;9563;49.240;9.088;2022-10-31T10:55:13;13.98;;;7.60;;
18867;SDS011;9563;49.240;9.088;2022-10-31T10:57:52;20.50;;;8.35;;
18867;SDS011;9563;49.240;9.088;2022-10-31T11:00:23;13.40;;;7.53;;
18867;SDS011;9563;49.240;9.088;2022-10-31T11:02:53;16.02;;;8.27;;
18867;SDS011;9563;49.240;9.088;2022-10-31T11:05:25;18.20;;;8.25;;
18867;SDS011;9563;49.240;9.088;2022-10-31T11:07:56;18.08;;;8.35;;
18867;SDS011;9563;49.240;9.088;2022-10-31T11:10:23;15.75;;;8.90;;
18867;SDS011;9563;49.240;9.088;2022-10-31T11:12:58;16.80;;;8.00;;
18867;SDS011;9563;49.240;9.088;2022-10-31T11:15:31;17.85;;;8.25;;
18867;SDS011;9563;49.240;9.088;2022-10-31T11:18:12;17.42;;;8.13;;
18867;SDS011;9563;49.240;9.088;2022-10-31T11:20:50;20.65;;;7.75;;
18867;SDS011;9563;49.240;9.088;2022-10-31T11:23:19;13.55;;;8.10;;
18867;SDS011;9563;49.240;9.088;2022-10-31T11:25:48;18.55;;;8.20;;
18867;SDS011;9563;49.240;9.088;2022-10-31T11:28:17;15.82;;;7.25;;
18867;SDS011;9563;49.240;9.088;2022-10-31T11:30:45;19.50;;;8.65;;
18867;SDS011;9563;49.240;9.088;2022-10-31T11:33:17;14.43;;;7.15;;
18867;SDS011;9563;49.240;9.088;2022-10-31T11:35:48;14.30;;;7.15;;
18867;SDS011;9563;49.240;9.088;2022-10-31T11:38:17;16.77;;;8.40;;
18867;SDS011;9563;49.240;9.088;2022-10-31T11:40:52;17.88;;;7.75;;
18867;SDS011;9563;49.240;9.088;2022-10-31T11:43:22;15.07;;;7.03;;
18867;SDS011;9563;49.240;9.088;2022-10-31T11:45:49;12.82;;;7.07;;
18867;SDS011;9563;49.240;9.088;2022-10-31T11:48:19;15.45;;;6.97;;
18867;SDS011;9563;49.240;9.088;2022-10-31T11:50:49;14.93;;;6.30;;
18867;SDS011;9563;49.240;9.088;2022-10-31T11:53:20;12.52;;;6.82;;
18867;SDS011;9563;49.240;9.088;2022-10-31T11:55:59;12.57;;;6.43;;
18867;SDS011;9563;49.240;9.088;2022-10-31T11:58:30;15.43;;;6.45;;
18867;SDS011;9563;49.240;9.088;2022-10-31T12:00:58;13.23;;;6.53;;
18867;SDS011;9563;49.240;9.088;2022-10-31T12:03:29;14.52;;;7.40;;
18867;SDS011;9563;49.240;9.088;2022-10-31T12:06:06;15.13;;;7.22;;
18867;SDS011;9563;49.240;9.088;2022-10-31T12:08:37;12.43;;;6.50;;
18867;SDS011;9563;49.240;9.088;2022-10-31T12:11:09;11.60;;;5.63;;
18867;SDS011;9563;49.240;9.088;2022-10-31T12:13:45;17.33;;;6.95;;
18867;SDS011;9563;49.240;9.088;2022-10-31T12:16:22;21.90;;;7.00;;
18867;SDS011;9563;49.240;9.088;2022-10-31T12:18:58;17.38;;;7.20;;
18867;SDS011;9563;49.240;9.088;2022-10-31T12:21:33;12.55;;;6.05;;
18867;SDS011;9563;49.240;9.088;2022-10-31T12:24:13;12.80;;;6.93;;
18867;SDS011;9563;49.240;9.088;2022-10-31T12:26:48;14.00;;;5.95;;
18867;SDS011;9563;49.240;9.088;2022-10-31T12:29:27;16.70;;;6.68;;
18867;SDS011;9563;49.240;9.088;2022-10-31T12:32:26;11.88;;;5.85;;
18867;SDS011;9563;49.240;9.088;2022-10-31T12:35:05;12.00;;;6.05;;
18867;SDS011;9563;49.240;9.088;2022-10-31T12:37:48;12.27;;;6.22;;
18867;SDS011;9563;49.240;9.088;2022-10-31T12:40:30;13.63;;;5.85;;
18867;SDS011;9563;49.240;9.088;2022-10-31T12:43:13;12.82;;;6.07;;
18867;SDS011;9563;49.240;9.088;2022-10-31T12:45:51;14.20;;;6.63;;
18867;SDS011;9563;49.240;9.088;2022-10-31T12:51:21;14.43;;;6.82;;
18867;SDS011;9563;49.240;9.088;2022-10-31T12:54:02;15.65;;;6.05;;
18867;SDS011;9563;49.240;9.088;2022-10-31T12:56:44;11.43;;;6.15;;
18867;SDS011;9563;49.240;9.088;2022-10-31T12:59:21;11.07;;;6.53;;
18867;SDS011;9563;49.240;9.088;2022-10-31T13:01:55;11.55;;;6.55;;
18867;SDS011;9563;49.240;9.088;2022-10-31T13:04:29;14.73;;;5.80;;
18867;SDS011;9563;49.240;9.088;2022-10-31T13:07:08;9.23;;;5.20;;
18867;SDS011;9563;49.240;9.088;2022-10-31T13:09:42;13.85;;;6.13;;
18867;SDS011;9563;49.240;9.088;2022-10-31T13:12:20;10.32;;;6.10;;
18867;SDS011;9563;49.240;9.088;2022-10-31T13:14:49;15.57;;;5.28;;
18867;SDS011;9563;49.240;9.088;2022-10-31T13:17:21;13.52;;;6.50;;
18867;SDS011;9563;49.240;9.088;2022-10-31T13:20:05;11.88;;;5.47;;
18867;SDS011;9563;49.240;9.088;2022-10-31T13:22:48;9.20;;;5.75;;
18867;SDS011;9563;49.240;9.088;2022-10-31T13:25:19;14.38;;;5.95;;
18867;SDS011;9563;49.240;9.088;2022-10-31T13:27:51;15.68;;;6.65;;
18867;SDS011;9563;49.240;9.088;2022-10-31T13:30:22;17.70;;;6.85;;
18867;SDS011;9563;49.240;9.088;2022-10-31T13:32:56;12.23;;;6.57;;
18867;SDS011;9563;49.240;9.088;2022-10-31T13:35:29;17.40;;;6.50;;
18867;SDS011;9563;49.240;9.088;2022-10-31T13:38:11;11.60;;;5.28;;
18867;SDS011;9563;49.240;9.088;2022-10-31T13:40:50;15.05;;;5.80;;
18867;SDS011;9563;49.240;9.088;2022-10-31T13:43:27;10.85;;;5.80;;
18867;SDS011;9563;49.240;9.088;2022-10-31T13:45:59;13.77;;;6.57;;
18867;SDS011;9563;49.240;9.088;2022-10-31T13:48:33;14.02;;;5.85;;
18867;SDS011;9563;49.240;9.088;2022-10-31T13:51:07;16.42;;;6.72;;
18867;SDS011;9563;49.240;9.088;2022-10-31T13:53:38;20.30;;;6.80;;
18867;SDS011;9563;49.240;9.088;2022-10-31T13:56:14;13.05;;;5.90;;
18867;SDS011;9563;49.240;9.088;2022-10-31T13:58:54;16.33;;;6.45;;
18867;SDS011;9563;49.240;9.088;2022-10-31T14:01:28;17.27;;;6.57;;
18867;SDS011;9563;49.240;9.088;2022-10-31T14:03:57;9.57;;;5.70;;
18867;SDS011;9563;49.240;9.088;2022-10-31T14:09:25;7.80;;;4.97;;
18867;SDS011;9563;49.240;9.088;2022-10-31T14:11:57;14.57;;;5.88;;
18867;SDS011;9563;49.240;9.088;2022-10-31T14:14:29;18.05;;;5.85;;
18867;SDS011;9563;49.240;9.088;2022-10-31T14:17:13;11.02;;;5.15;;
18867;SDS011;9563;49.240;9.088;2022-10-31T14:19:55;10.95;;;4.57;;
18867;SDS011;9563;49.240;9.088;2022-10-31T14:22:30;10.60;;;5.05;;
18867;SDS011;9563;49.240;9.088;2022-10-31T14:24:59;10.98;;;4.72;;
18867;SDS011;9563;49.240;9.088;2022-10-31T14:27:32;11.70;;;5.45;;
18867;SDS011;9563;49.240;9.088;2022-10-31T14:30:13;10.25;;;5.22;;
18867;SDS011;9563;49.240;9.088;2022-10-31T14:32:42;10.82;;;4.90;;
18867;SDS011;9563;49.240;9.088;2022-10-31T14:35:13;10.52;;;5.22;;
18867;SDS011;9563;49.240;9.088;2022-10-31T14:37:48;12.50;;;5.85;;
18867;SDS011;9563;49.240;9.088;2022-10-31T14:40:30;15.07;;;6.07;;
18867;SDS011;9563;49.240;9.088;2022-10-31T14:43:13;9.13;;;5.05;;
18867;SDS011;9563;49.240;9.088;2022-10-31T14:45:49;15.75;;;5.60;;
18867;SDS011;9563;49.240;9.088;2022-10-31T14:48:38;12.55;;;6.40;;
18867;SDS011;9563;49.240;9.088;2022-10-31T14:51:19;10.70;;;5.35;;
18867;SDS011;9563;49.240;9.088;2022-10-31T14:53:48;11.23;;;4.53;;
18867;SDS011;9563;49.240;9.088;2022-10-31T14:56:20;14.77;;;6.07;;
18867;SDS011;9563;49.240;9.088;2022-10-31T14:58:49;12.98;;;6.53;;
18867;SDS011;9563;49.240;9.088;2022-10-31T15:01:21;12.23;;;6.18;;
18867;SDS011;9563;49.240;9.088;2022-10-31T15:03:49;11.70;;;5.65;;
18867;SDS011;9563;49.240;9.088;2022-10-31T15:06:18;15.80;;;6.05;;
18867;SDS011;9563;49.240;9.088;2022-10-31T15:08:49;11.07;;;5.15;;
18867;SDS011;9563;49.240;9.088;2022-10-31T15:11:19;16.10;;;5.22;;
18867;SDS011;9563;49.240;9.088;2022-10-31T15:13:47;10.25;;;4.50;;
18867;SDS011;9563;49.240;9.088;2022-10-31T15:16:16;11.25;;;5.03;;
18867;SDS011;9563;49.240;9.088;2022-10-31T15:18:53;12.48;;;6.07;;
18867;SDS011;9563;49.240;9.088;2022-10-31T15:21:21;15.98;;;5.55;;
18867;SDS011;9563;49.240;9.088;2022-10-31T15:23:50;16.60;;;5.90;;
18867;SDS011;9563;49.240;9.088;2022-10-31T15:26:22;16.90;;;7.10;;